createdAt,value
2018-06-03T00:00:33.735Z,9.77
2018-06-03T00:03:02.915Z,11.13
2018-06-03T00:05:32.051Z,11.10
2018-06-03T00:08:01.230Z,11.77
2018-06-03T00:10:29.883Z,12.63
2018-06-03T00:12:59.027Z,12.63
2018-06-03T00:15:28.078Z,12.40
2018-06-03T00:17:57.039Z,11.87
2018-06-03T00:20:36.747Z,10.50
2018-06-03T00:23:05.714Z,11.40
2018-06-03T00:25:34.848Z,11.23
2018-06-03T00:28:03.921Z,11.17
2018-06-03T00:30:32.803Z,12.07
2018-06-03T00:33:01.831Z,12.47
2018-06-03T00:35:30.980Z,11.73
2018-06-03T00:38:00.047Z,12.73
2018-06-03T00:40:29.137Z,13.07
2018-06-03T00:42:58.262Z,12.50
2018-06-03T00:45:27.407Z,12.60
2018-06-03T00:47:56.479Z,13.03
2018-06-03T00:50:25.527Z,13.50
2018-06-03T00:52:54.695Z,13.23
2018-06-03T00:55:23.835Z,12.70
2018-06-03T00:57:52.802Z,12.93
2018-06-03T01:00:21.956Z,13.10
2018-06-03T01:02:51.031Z,12.73
2018-06-03T01:05:20.033Z,11.10
2018-06-03T01:07:48.840Z,12.87
2018-06-03T01:10:17.711Z,12.07
2018-06-03T01:12:46.523Z,11.90
2018-06-03T01:15:15.371Z,10.80
2018-06-03T01:17:44.183Z,11.13
2018-06-03T01:20:13.019Z,10.20
2018-06-03T01:22:41.819Z,10.60
2018-06-03T01:25:10.663Z,10.67
2018-06-03T01:27:39.747Z,10.03
2018-06-03T01:30:08.888Z,10.07
2018-06-03T01:32:37.962Z,9.37
2018-06-03T01:35:06.972Z,11.03
2018-06-03T01:37:35.967Z,9.50
2018-06-03T01:40:05.111Z,9.17
2018-06-03T01:42:34.192Z,8.80
2018-06-03T01:45:03.438Z,9.23
2018-06-03T01:47:32.615Z,8.73
2018-06-03T01:50:01.816Z,9.33
2018-06-03T01:52:30.959Z,8.63
2018-06-03T01:54:59.759Z,7.77
2018-06-03T01:57:28.594Z,8.23
2018-06-03T01:59:57.596Z,8.40
2018-06-03T02:02:26.679Z,8.17
2018-06-03T02:04:55.643Z,8.13
2018-06-03T02:07:24.683Z,7.77
2018-06-03T02:09:53.759Z,7.20
2018-06-03T02:12:22.899Z,7.27
2018-06-03T02:14:51.972Z,7.07
2018-06-03T02:17:21.116Z,8.57
2018-06-03T02:19:49.510Z,7.40
2018-06-03T02:22:18.345Z,8.03
2018-06-03T02:24:47.164Z,7.73
2018-06-03T02:27:15.999Z,7.20
2018-06-03T02:29:44.800Z,6.50
2018-06-03T02:32:13.651Z,7.93
2018-06-03T02:34:42.459Z,7.50
2018-06-03T02:37:11.523Z,7.03
2018-06-03T02:39:40.486Z,8.67
2018-06-03T02:42:09.638Z,8.13
2018-06-03T02:44:38.707Z,7.53
2018-06-03T02:47:07.749Z,6.93
2018-06-03T02:49:36.578Z,7.17
2018-06-03T02:52:05.507Z,7.67
2018-06-03T02:54:34.311Z,7.10
2018-06-03T02:57:03.164Z,7.13
2018-06-03T02:59:31.988Z,6.37
2018-06-03T03:02:00.830Z,6.57
2018-06-03T03:04:29.827Z,6.90
2018-06-03T03:06:59.076Z,7.50
2018-06-03T03:09:28.350Z,8.77
2018-06-03T03:11:57.391Z,8.97
2018-06-03T03:14:26.467Z,10.53
2018-06-03T03:16:55.611Z,10.90
2018-06-03T03:19:24.580Z,9.83
2018-06-03T03:21:53.615Z,10.50
2018-06-03T03:24:22.207Z,10.03
2018-06-03T03:26:51.220Z,10.23
2018-06-03T03:29:20.295Z,10.17
2018-06-03T03:31:49.330Z,10.23
2018-06-03T03:34:18.303Z,11.20
2018-06-03T03:36:47.583Z,10.13
2018-06-03T03:39:16.622Z,10.43
2018-06-03T03:41:45.663Z,9.73
2018-06-03T03:44:14.830Z,9.53
2018-06-03T03:46:43.989Z,9.67
2018-06-03T03:49:12.971Z,10.43
2018-06-03T03:51:42.204Z,10.07
2018-06-03T03:54:11.263Z,9.13
2018-06-03T03:56:40.315Z,9.63
2018-06-03T03:59:09.286Z,12.10
2018-06-03T04:01:38.327Z,9.50
2018-06-03T04:04:07.351Z,8.80
2018-06-03T04:06:36.432Z,9.73
2018-06-03T04:09:06.742Z,10.20
2018-06-03T04:11:35.771Z,8.43
2018-06-03T04:14:04.847Z,7.80
2018-06-03T04:16:33.895Z,7.90
2018-06-03T04:19:02.930Z,8.63
2018-06-03T04:21:32.103Z,7.50
2018-06-03T04:24:01.179Z,7.70
2018-06-03T04:26:30.227Z,7.73
2018-06-03T04:28:59.436Z,8.00
2018-06-03T04:31:28.119Z,7.77
2018-06-03T04:33:57.242Z,7.60
2018-06-03T04:36:26.203Z,7.80
2018-06-03T04:38:55.357Z,8.13
2018-06-03T04:41:24.371Z,8.03
2018-06-03T04:43:52.982Z,8.30
2018-06-03T04:46:22.027Z,8.00
2018-06-03T04:48:51.097Z,8.50
2018-06-03T04:51:20.250Z,8.30
2018-06-03T04:53:49.391Z,7.87
2018-06-03T04:56:18.846Z,7.63
2018-06-03T04:58:48.023Z,8.63
2018-06-03T05:01:16.987Z,8.23
2018-06-03T05:03:46.133Z,8.10
2018-06-03T05:06:15.311Z,7.90
2018-06-03T05:08:44.554Z,7.90
2018-06-03T05:11:13.622Z,9.53
2018-06-03T05:13:42.779Z,8.10
2018-06-03T05:16:11.887Z,7.20
2018-06-03T05:18:40.886Z,7.70
2018-06-03T05:21:09.950Z,8.73
2018-06-03T05:23:38.999Z,8.13
2018-06-03T05:26:07.582Z,7.90
2018-06-03T05:28:36.595Z,7.60
2018-06-03T05:31:05.679Z,8.27
2018-06-03T05:33:34.715Z,8.47
2018-06-03T05:36:03.790Z,9.47
2018-06-03T05:38:32.931Z,9.50
2018-06-03T05:41:01.907Z,7.97
2018-06-03T05:43:31.047Z,8.03
2018-06-03T05:46:00.022Z,7.10
2018-06-03T05:48:29.366Z,7.80
2018-06-03T05:50:58.659Z,7.00
2018-06-03T05:53:27.787Z,7.83
2018-06-03T05:55:56.602Z,7.47
2018-06-03T05:58:25.690Z,8.27
2018-06-03T06:00:54.775Z,7.73
2018-06-03T06:03:23.807Z,7.90
2018-06-03T06:05:52.390Z,7.57
2018-06-03T06:08:21.526Z,8.00
2018-06-03T06:10:50.686Z,10.53
2018-06-03T06:13:19.723Z,7.37
2018-06-03T06:15:48.319Z,6.70
2018-06-03T06:18:17.345Z,7.97
2018-06-03T06:20:46.504Z,8.00
2018-06-03T06:23:15.647Z,8.60
2018-06-03T06:25:44.722Z,8.87
2018-06-03T06:28:13.867Z,9.93
2018-06-03T06:30:42.938Z,10.10
2018-06-03T06:33:11.984Z,11.63
2018-06-03T06:35:40.939Z,11.00
2018-06-03T06:38:09.987Z,10.17
2018-06-03T06:40:38.969Z,11.03
2018-06-03T06:43:08.000Z,11.47
2018-06-03T06:45:37.005Z,12.40
2018-06-03T06:48:05.830Z,13.50
2018-06-03T06:50:35.300Z,11.50
2018-06-03T06:53:04.336Z,11.17
2018-06-03T06:55:33.415Z,11.23
2018-06-03T06:58:02.563Z,9.87
2018-06-03T07:00:32.285Z,11.60
2018-06-03T07:03:01.482Z,9.67
2018-06-03T07:05:31.130Z,9.20
2018-06-03T07:08:00.305Z,9.33
2018-06-03T07:10:29.488Z,9.30
2018-06-03T07:12:58.630Z,8.60
2018-06-03T07:15:28.366Z,9.10
2018-06-03T07:17:57.430Z,9.00
2018-06-03T07:20:27.250Z,7.77
2018-06-03T07:22:56.259Z,9.10
2018-06-03T07:25:25.402Z,8.30
2018-06-03T07:27:54.476Z,7.37
2018-06-03T07:30:23.871Z,7.93
2018-06-03T07:32:52.794Z,8.10
2018-06-03T07:35:22.631Z,7.90
2018-06-03T07:37:51.625Z,7.80
2018-06-03T07:40:20.639Z,7.73
2018-06-03T07:42:49.743Z,7.40
2018-06-03T07:45:19.449Z,7.10
2018-06-03T07:47:48.468Z,7.07
2018-06-03T07:50:18.286Z,6.73
2018-06-03T07:52:47.295Z,7.20
2018-06-03T07:55:16.342Z,6.67
2018-06-03T07:57:45.412Z,6.43
2018-06-03T08:00:15.212Z,6.63
2018-06-03T08:02:44.236Z,6.43
2018-06-03T08:05:13.945Z,6.87
2018-06-03T08:07:43.067Z,6.53
2018-06-03T08:10:12.319Z,6.27
2018-06-03T08:12:41.386Z,6.03
2018-06-03T08:15:10.559Z,6.53
2018-06-03T08:17:39.510Z,6.53
2018-06-03T08:20:08.816Z,6.87
2018-06-03T08:22:37.987Z,6.90
2018-06-03T08:25:07.187Z,6.07
2018-06-03T08:27:36.352Z,7.10
2018-06-03T08:30:06.855Z,7.93
2018-06-03T08:32:35.899Z,8.33
2018-06-03T08:35:06.221Z,7.43
2018-06-03T08:37:35.358Z,6.70
2018-06-03T08:40:04.995Z,8.00
2018-06-03T08:42:33.969Z,6.60
2018-06-03T08:45:03.115Z,6.30
2018-06-03T08:47:32.183Z,6.73
2018-06-03T08:50:01.225Z,6.40
2018-06-03T08:52:30.295Z,5.83
2018-06-03T08:54:59.435Z,5.80
2018-06-03T08:57:28.611Z,6.20
2018-06-03T08:59:57.749Z,5.80
2018-06-03T09:02:26.828Z,6.10
2018-06-03T09:04:55.867Z,8.63
2018-06-03T09:07:25.043Z,5.50
2018-06-03T09:09:54.178Z,5.37
2018-06-03T09:12:23.151Z,5.37
2018-06-03T09:14:52.200Z,5.23
2018-06-03T09:17:21.331Z,5.00
2018-06-03T09:19:50.516Z,5.00
2018-06-03T09:22:19.591Z,5.63
2018-06-03T09:24:48.739Z,4.87
2018-06-03T09:27:17.671Z,5.10
2018-06-03T09:29:46.744Z,5.63
2018-06-03T09:32:15.818Z,5.03
2018-06-03T09:34:44.914Z,4.73
2018-06-03T09:37:13.942Z,5.53
2018-06-03T09:39:43.088Z,5.00
2018-06-03T09:42:12.043Z,6.40
2018-06-03T09:44:41.202Z,5.23
2018-06-03T09:47:10.262Z,6.83
2018-06-03T09:49:39.303Z,5.70
2018-06-03T09:52:07.881Z,4.87
2018-06-03T09:54:36.876Z,5.27
2018-06-03T09:57:05.936Z,5.67
2018-06-03T09:59:35.123Z,4.90
2018-06-03T10:02:04.416Z,5.23
2018-06-03T10:04:34.084Z,6.07
2018-06-03T10:07:03.127Z,5.60
2018-06-03T10:09:32.036Z,5.40
2018-06-03T10:12:00.950Z,5.03
2018-06-03T10:14:29.946Z,4.93
2018-06-03T10:16:59.191Z,6.57
2018-06-03T10:19:28.171Z,5.40
2018-06-03T10:21:57.328Z,7.87
2018-06-03T10:24:26.475Z,8.90
2018-06-03T10:26:55.529Z,10.37
2018-06-03T10:29:24.665Z,11.03
2018-06-03T10:31:53.838Z,8.13
2018-06-03T10:34:22.910Z,7.83
2018-06-03T10:36:51.947Z,9.97
2018-06-03T10:39:21.027Z,7.73
2018-06-03T10:41:50.074Z,7.63
2018-06-03T10:44:18.883Z,8.10
2018-06-03T10:46:48.075Z,7.03
2018-06-03T10:49:17.155Z,7.00
2018-06-03T10:51:46.312Z,6.40
2018-06-03T10:54:15.487Z,6.50
2018-06-03T10:56:44.340Z,5.03
2018-06-03T10:59:13.482Z,6.70
2018-06-03T11:01:42.639Z,5.90
2018-06-03T11:04:12.036Z,6.37
2018-06-03T11:06:40.666Z,6.47
2018-06-03T11:09:09.811Z,5.70
2018-06-03T11:11:38.851Z,5.93
2018-06-03T11:14:07.927Z,6.67
2018-06-03T11:16:37.075Z,5.43
2018-06-03T11:19:06.242Z,5.33
2018-06-03T11:21:35.383Z,5.23
2018-06-03T11:24:03.970Z,5.77
2018-06-03T11:26:32.995Z,5.10
2018-06-03T11:29:01.964Z,5.83
2018-06-03T11:31:31.034Z,5.10
2018-06-03T11:34:00.184Z,5.03
2018-06-03T11:36:29.248Z,5.50
2018-06-03T11:38:58.397Z,4.97
2018-06-03T11:41:27.536Z,4.53
2018-06-03T11:43:56.528Z,4.93
2018-06-03T11:46:25.174Z,4.83
2018-06-03T11:48:54.315Z,4.83
2018-06-03T11:51:23.468Z,4.90
2018-06-03T11:53:52.463Z,5.00
2018-06-03T11:56:21.778Z,5.50
2018-06-03T11:58:53.645Z,4.70
2018-06-03T12:01:23.007Z,4.57
2018-06-03T12:03:52.148Z,4.60
2018-06-03T12:06:21.194Z,5.03
2018-06-03T12:08:50.467Z,4.30
2018-06-03T12:11:19.710Z,4.97
2018-06-03T12:13:48.294Z,4.70
2018-06-03T12:16:17.306Z,4.70
2018-06-03T12:18:45.891Z,4.23
2018-06-03T12:21:14.916Z,4.27
2018-06-03T12:23:43.988Z,4.47
2018-06-03T12:26:13.034Z,4.23
2018-06-03T12:28:42.221Z,5.03
2018-06-03T12:31:11.364Z,4.60
2018-06-03T12:33:40.524Z,4.23
2018-06-03T12:36:09.660Z,4.97
2018-06-03T12:38:38.739Z,4.07
2018-06-03T12:41:07.786Z,3.77
2018-06-03T12:43:36.747Z,3.70
2018-06-03T12:46:05.891Z,5.07
2018-06-03T12:48:34.967Z,4.17
2018-06-03T12:51:04.307Z,4.13
2018-06-03T12:53:32.822Z,3.53
2018-06-03T12:56:01.911Z,4.10
2018-06-03T12:58:30.992Z,3.87
2018-06-03T13:00:59.995Z,3.90
2018-06-03T13:03:29.134Z,3.60
2018-06-03T13:05:58.207Z,3.70
2018-06-03T13:08:27.242Z,4.00
2018-06-03T13:10:56.323Z,3.70
2018-06-03T13:13:25.373Z,3.73
2018-06-03T13:15:54.458Z,4.33
2018-06-03T13:18:23.482Z,3.97
2018-06-03T13:20:52.554Z,3.77
2018-06-03T13:23:21.594Z,4.13
2018-06-03T13:25:50.677Z,3.70
2018-06-03T13:28:19.808Z,4.90
2018-06-03T13:30:48.402Z,3.97
2018-06-03T13:33:17.521Z,3.50
2018-06-03T13:35:46.489Z,3.40
2018-06-03T13:38:15.623Z,3.80
2018-06-03T13:40:44.212Z,3.77
2018-06-03T13:43:13.334Z,4.00
2018-06-03T13:45:42.290Z,4.73
2018-06-03T13:48:11.447Z,3.50
2018-06-03T13:50:40.515Z,3.97
2018-06-03T13:53:09.663Z,3.60
2018-06-03T13:55:38.731Z,3.57
2018-06-03T13:58:07.770Z,3.47
2018-06-03T14:00:36.630Z,4.90
2018-06-03T14:03:05.479Z,3.40
2018-06-03T14:05:34.866Z,3.30
2018-06-03T14:08:04.004Z,3.43
2018-06-03T14:10:33.178Z,4.03
2018-06-03T14:13:02.218Z,4.40
2018-06-03T14:15:31.851Z,3.27
2018-06-03T14:18:00.701Z,3.97
2018-06-03T14:20:29.999Z,3.20
2018-06-03T14:22:58.843Z,3.43
2018-06-03T14:25:27.662Z,3.17
2018-06-03T14:27:56.538Z,3.30
2018-06-03T14:30:25.867Z,3.50
2018-06-03T14:32:54.712Z,3.87
2018-06-03T14:35:24.065Z,3.93
2018-06-03T14:37:52.908Z,3.87
2018-06-03T14:40:21.719Z,3.70
2018-06-03T14:42:50.650Z,3.73
2018-06-03T14:45:19.964Z,4.40
2018-06-03T14:47:48.815Z,4.10
2018-06-03T14:50:18.141Z,3.60
2018-06-03T14:52:47.023Z,3.87
2018-06-03T14:55:15.426Z,3.73
2018-06-03T14:57:44.279Z,3.73
2018-06-03T15:00:13.587Z,4.30
2018-06-03T15:02:42.463Z,3.73
2018-06-03T15:05:11.819Z,3.73
2018-06-03T15:07:40.735Z,4.23
2018-06-03T15:10:09.655Z,3.67
2018-06-03T15:12:38.520Z,3.50
2018-06-03T15:15:07.483Z,3.93
2018-06-03T15:17:36.324Z,3.47
2018-06-03T15:20:06.415Z,3.67
2018-06-03T15:22:35.271Z,4.43
2018-06-03T15:25:04.511Z,3.50
2018-06-03T15:27:33.363Z,3.40
2018-06-03T15:30:02.244Z,3.53
2018-06-03T15:32:31.107Z,4.07
2018-06-03T15:34:59.920Z,3.57
2018-06-03T15:37:28.759Z,3.23
2018-06-03T15:39:57.626Z,3.80
2018-06-03T15:42:26.598Z,5.67
2018-06-03T15:44:55.635Z,3.67
2018-06-03T15:47:24.611Z,4.00
2018-06-03T15:49:53.655Z,3.70
2018-06-03T15:52:22.739Z,3.83
2018-06-03T15:54:51.592Z,4.00
2018-06-03T15:57:20.402Z,3.53
2018-06-03T15:59:49.275Z,3.20
2018-06-03T16:02:18.360Z,3.73
2018-06-03T16:04:47.364Z,3.57
2018-06-03T16:07:16.468Z,3.50
2018-06-03T16:09:45.715Z,3.87
2018-06-03T16:12:14.794Z,3.77
2018-06-03T16:14:43.826Z,3.70
2018-06-03T16:17:12.814Z,3.87
2018-06-03T16:19:41.869Z,4.57
2018-06-03T16:22:10.939Z,3.80
2018-06-03T16:24:40.063Z,3.60
2018-06-03T16:27:09.027Z,4.43
2018-06-03T16:29:38.162Z,3.83
2018-06-03T16:32:07.443Z,4.97
2018-06-03T16:34:36.600Z,7.30
2018-06-03T16:37:05.759Z,5.70
2018-06-03T16:39:34.986Z,5.63
2018-06-03T16:42:04.161Z,6.97
2018-06-03T16:44:33.302Z,5.97
2018-06-03T16:47:01.890Z,6.00
2018-06-03T16:49:31.013Z,5.77
2018-06-03T16:51:59.979Z,6.07
2018-06-03T16:54:29.059Z,5.57
2018-06-03T16:56:58.199Z,6.03
2018-06-03T16:59:27.251Z,5.63
2018-06-03T17:01:56.215Z,5.43
2018-06-03T17:04:25.059Z,6.20
2018-06-03T17:06:54.199Z,5.40
2018-06-03T17:09:23.363Z,6.07
2018-06-03T17:11:52.540Z,5.43
2018-06-03T17:14:21.708Z,5.17
2018-06-03T17:16:50.854Z,5.20
2018-06-03T17:19:19.903Z,5.90
2018-06-03T17:21:48.974Z,5.17
2018-06-03T17:24:18.115Z,5.10
2018-06-03T17:26:47.191Z,4.63
2018-06-03T17:29:16.227Z,6.00
2018-06-03T17:31:45.079Z,6.00
2018-06-03T17:34:13.927Z,4.53
2018-06-03T17:36:42.904Z,4.60
2018-06-03T17:39:12.159Z,4.50
2018-06-03T17:41:41.315Z,5.47
2018-06-03T17:44:10.362Z,6.83
2018-06-03T17:46:39.435Z,4.80
2018-06-03T17:49:08.587Z,5.20
2018-06-03T17:51:37.547Z,4.80
2018-06-03T17:54:06.691Z,5.10
2018-06-03T17:56:35.666Z,5.67
2018-06-03T17:59:05.219Z,5.27
2018-06-03T18:01:34.300Z,5.33
2018-06-03T18:04:03.442Z,4.80
2018-06-03T18:06:32.506Z,5.13
2018-06-03T18:09:01.654Z,4.80
2018-06-03T18:11:30.736Z,5.20
2018-06-03T18:13:59.864Z,5.17
2018-06-03T18:16:28.953Z,5.50
2018-06-03T18:18:57.974Z,5.17
2018-06-03T18:21:27.117Z,5.53
2018-06-03T18:23:56.363Z,5.53
2018-06-03T18:26:25.496Z,5.40
2018-06-03T18:28:54.580Z,6.70
2018-06-03T18:31:23.615Z,5.33
2018-06-03T18:33:52.714Z,5.50
2018-06-03T18:36:21.844Z,7.10
2018-06-03T18:38:50.830Z,5.17
2018-06-03T18:41:20.055Z,5.20
2018-06-03T18:43:49.120Z,4.93
2018-06-03T18:46:18.308Z,5.00
2018-06-03T18:48:47.655Z,4.23
2018-06-03T18:51:16.787Z,4.97
2018-06-03T18:53:45.869Z,4.87
2018-06-03T18:56:15.016Z,4.97
2018-06-03T18:58:44.596Z,5.23
2018-06-03T19:01:13.451Z,4.37
2018-06-03T19:03:42.607Z,5.07
2018-06-03T19:06:11.867Z,4.90
2018-06-03T19:08:41.036Z,5.37
2018-06-03T19:11:10.534Z,5.30
2018-06-03T19:13:39.671Z,4.70
2018-06-03T19:16:08.549Z,5.73
2018-06-03T19:18:37.470Z,4.57
2018-06-03T19:21:06.811Z,5.47
2018-06-03T19:23:36.023Z,4.83
2018-06-03T19:26:05.131Z,5.20
2018-06-03T19:28:34.104Z,5.37
2018-06-03T19:31:03.139Z,6.17
2018-06-03T19:33:32.188Z,5.63
2018-06-03T19:36:01.359Z,5.53
2018-06-03T19:38:30.528Z,5.67
2018-06-03T19:40:59.571Z,5.90
2018-06-03T19:43:28.779Z,6.27
2018-06-03T19:45:57.400Z,5.23
2018-06-03T19:48:26.446Z,5.23
2018-06-03T19:50:55.694Z,5.00
2018-06-03T19:53:24.663Z,5.37
2018-06-03T19:55:59.920Z,5.60
2018-06-03T19:58:28.894Z,5.60
2018-06-03T20:00:58.785Z,5.47
2018-06-03T20:03:27.755Z,6.13
2018-06-03T20:05:56.612Z,6.50
2018-06-03T20:08:25.468Z,4.93
2018-06-03T20:10:54.707Z,5.20
2018-06-03T20:13:23.881Z,5.70
2018-06-03T20:15:53.017Z,6.10
2018-06-03T20:18:21.978Z,5.13
2018-06-03T20:20:51.243Z,5.17
2018-06-03T20:23:20.310Z,6.47
2018-06-03T20:25:49.351Z,6.77
2018-06-03T20:28:18.433Z,7.07
2018-06-03T20:30:47.687Z,8.17
2018-06-03T20:33:16.527Z,8.47
2018-06-03T20:35:45.579Z,8.77
2018-06-03T20:38:14.062Z,8.63
2018-06-03T20:40:42.596Z,10.20
2018-06-03T20:43:11.527Z,11.10
2018-06-03T20:45:40.404Z,14.40
2018-06-03T20:48:09.232Z,17.37
2018-06-03T20:50:38.283Z,17.50
2018-06-03T20:53:07.490Z,14.60
2018-06-03T20:55:36.672Z,19.30
2018-06-03T20:58:05.810Z,16.10
2018-06-03T21:00:34.987Z,17.80
2018-06-03T21:03:03.903Z,19.47
2018-06-03T21:05:32.735Z,19.47
2018-06-03T21:08:01.839Z,18.80
2018-06-03T21:10:31.111Z,19.33
2018-06-03T21:13:00.156Z,20.70
2018-06-03T21:15:29.123Z,19.00
2018-06-03T21:17:58.128Z,19.77
2018-06-03T21:20:27.234Z,19.73
2018-06-03T21:22:55.994Z,19.63
2018-06-03T21:25:25.168Z,20.07
2018-06-03T21:27:53.810Z,19.33
2018-06-03T21:30:22.637Z,19.77
2018-06-03T21:32:51.501Z,22.43
2018-06-03T21:35:20.324Z,20.87
2018-06-03T21:37:49.199Z,18.90
2018-06-03T21:40:18.031Z,19.83
2018-06-03T21:42:47.091Z,19.70
2018-06-03T21:45:15.903Z,19.20
2018-06-03T21:47:44.771Z,18.83
2018-06-03T21:50:13.595Z,19.13
2018-06-03T21:52:42.443Z,16.93
2018-06-03T21:55:11.283Z,16.80
2018-06-03T21:57:40.130Z,18.30
2018-06-03T22:00:08.966Z,15.53
2018-06-03T22:02:37.818Z,15.77
2018-06-03T22:05:06.681Z,16.97
2018-06-03T22:07:35.547Z,18.10
2018-06-03T22:10:04.443Z,19.53
2018-06-03T22:12:33.407Z,22.97
2018-06-03T22:15:02.220Z,33.13
2018-06-03T22:17:31.255Z,31.77
2018-06-03T22:20:00.072Z,26.63
2018-06-03T22:22:28.931Z,26.43
2018-06-03T22:24:57.735Z,27.70
2018-06-03T22:27:26.603Z,28.63
2018-06-03T22:29:55.439Z,32.57
2018-06-03T22:32:24.331Z,41.13
2018-06-03T22:34:53.151Z,43.47
2018-06-03T22:37:22.000Z,48.33
2018-06-03T22:39:50.818Z,45.80
2018-06-03T22:42:19.675Z,46.53
2018-06-03T22:44:48.508Z,41.27
2018-06-03T22:47:17.359Z,38.33
2018-06-03T22:49:46.187Z,33.83
2018-06-03T22:52:15.099Z,31.60
2018-06-03T22:54:43.928Z,29.60
2018-06-03T22:57:52.997Z,25.53
2018-06-03T23:00:23.549Z,22.50
2018-06-03T23:02:57.558Z,20.90
2018-06-03T23:05:26.372Z,22.40
2018-06-03T23:07:55.278Z,23.53
2018-06-03T23:10:24.179Z,27.47
2018-06-03T23:12:53.023Z,32.40
2018-06-03T23:15:21.835Z,36.10
2018-06-03T23:17:50.688Z,38.77
2018-06-03T23:20:19.500Z,39.73
2018-06-03T23:22:48.350Z,38.13
2018-06-03T23:25:17.196Z,36.77
2018-06-03T23:27:46.043Z,33.60
2018-06-03T23:30:14.842Z,31.93
2018-06-03T23:32:43.682Z,31.77
2018-06-03T23:35:12.494Z,30.73
2018-06-03T23:37:41.342Z,34.97
2018-06-03T23:40:10.179Z,35.83
2018-06-03T23:42:38.979Z,38.90
2018-06-03T23:45:07.890Z,37.20
2018-06-03T23:47:36.694Z,34.57
2018-06-03T23:50:05.676Z,32.30
2018-06-03T23:52:34.489Z,30.77
2018-06-03T23:55:03.365Z,29.03
2018-06-03T23:57:32.178Z,28.30
